Terminal Aerodrome Forecast
Issued by NWS

Home | Current Version | Previous Version | Text Only | Print | Product List | Glossary On
Versions: 1 2 3 4 5 6 7 8 9 10 11 12 13 14 15 16 17 18 19
926
FTUS42 KILM 291749 CCA
TAFCRE
TAF COR
KCRE 291749Z 2918/3018 12011G20KT P6SM SCT020 SCT110
      TEMPO 2922/3001 5SM -SHRA BKN020
     FM300100 12004KT 6SM -SHRA BKN014
     FM300700 13004KT P6SM VCSH BKN008
     FM301100 14006KT 5SM -SHRA BKN016=

USA.gov is the U.S. government's official web portal to all federal, state and local government web resources and services.